sensor_id;sensor_type;location;lat;lon;timestamp;pressure;altitude;pressure_sealevel;temperature;humidity
25498;BME280;13406;53.380;7.226;2023-04-15T00:00:36;101274.41;;;6.74;100.00
25498;BME280;13406;53.380;7.226;2023-04-15T00:03:02;101279.59;;;6.75;100.00
25498;BME280;13406;53.380;7.226;2023-04-15T00:05:31;101271.84;;;6.48;100.00
25498;BME280;13406;53.380;7.226;2023-04-15T00:07:57;101275.28;;;6.74;100.00
25498;BME280;13406;53.380;7.226;2023-04-15T00:10:26;101257.41;;;6.67;100.00
25498;BME280;13406;53.380;7.226;2023-04-15T00:12:52;101256.75;;;6.73;100.00
25498;BME280;13406;53.380;7.226;2023-04-15T00:15:18;101264.28;;;6.77;100.00
25498;BME280;13406;53.380;7.226;2023-04-15T00:17:43;101271.22;;;6.54;100.00
25498;BME280;13406;53.380;7.226;2023-04-15T00:20:09;101263.31;;;6.36;100.00
25498;BME280;13406;53.380;7.226;2023-04-15T00:22:35;101259.09;;;6.60;100.00
25498;BME280;13406;53.380;7.226;2023-04-15T00:25:01;101275.00;;;6.43;100.00
25498;BME280;13406;53.380;7.226;2023-04-15T00:27:26;101209.59;;;5.80;100.00
25498;BME280;13406;53.380;7.226;2023-04-15T00:29:52;101268.91;;;6.25;100.00
25498;BME280;13406;53.380;7.226;2023-04-15T00:32:18;101277.69;;;6.09;100.00
25498;BME280;13406;53.380;7.226;2023-04-15T00:34:44;101274.81;;;6.37;100.00
25498;BME280;13406;53.380;7.226;2023-04-15T00:37:10;101243.84;;;6.44;100.00
25498;BME280;13406;53.380;7.226;2023-04-15T00:39:35;101270.78;;;6.32;100.00
25498;BME280;13406;53.380;7.226;2023-04-15T00:42:03;101280.06;;;6.63;100.00
25498;BME280;13406;53.380;7.226;2023-04-15T00:44:29;101270.56;;;6.60;100.00
25498;BME280;13406;53.380;7.226;2023-04-15T00:46:54;101246.53;;;6.44;100.00
25498;BME280;13406;53.380;7.226;2023-04-15T00:49:21;101230.44;;;6.11;100.00
25498;BME280;13406;53.380;7.226;2023-04-15T00:51:47;101281.06;;;6.62;100.00
25498;BME280;13406;53.380;7.226;2023-04-15T00:54:12;101267.00;;;6.43;100.00
25498;BME280;13406;53.380;7.226;2023-04-15T00:56:38;101286.38;;;6.62;100.00
25498;BME280;13406;53.380;7.226;2023-04-15T00:59:05;101276.75;;;6.69;100.00
25498;BME280;13406;53.380;7.226;2023-04-15T01:01:33;101276.03;;;6.59;100.00
25498;BME280;13406;53.380;7.226;2023-04-15T01:03:59;101280.56;;;6.58;100.00
25498;BME280;13406;53.380;7.226;2023-04-15T01:06:25;101277.63;;;6.35;100.00
25498;BME280;13406;53.380;7.226;2023-04-15T01:08:52;101234.94;;;6.10;100.00
25498;BME280;13406;53.380;7.226;2023-04-15T01:11:18;101272.53;;;6.16;100.00
25498;BME280;13406;53.380;7.226;2023-04-15T01:13:45;101287.97;;;6.38;100.00
25498;BME280;13406;53.380;7.226;2023-04-15T01:16:11;101293.16;;;6.48;100.00
25498;BME280;13406;53.380;7.226;2023-04-15T01:18:37;101274.41;;;6.23;100.00
25498;BME280;13406;53.380;7.226;2023-04-15T01:21:04;101265.69;;;6.05;100.00
25498;BME280;13406;53.380;7.226;2023-04-15T01:23:30;101280.06;;;6.20;100.00
25498;BME280;13406;53.380;7.226;2023-04-15T01:25:56;101293.19;;;6.14;100.00
25498;BME280;13406;53.380;7.226;2023-04-15T01:28:22;101242.94;;;5.93;100.00
25498;BME280;13406;53.380;7.226;2023-04-15T01:30:48;101278.38;;;6.11;100.00
25498;BME280;13406;53.380;7.226;2023-04-15T01:33:13;101270.88;;;6.15;100.00
25498;BME280;13406;53.380;7.226;2023-04-15T01:35:38;101265.50;;;6.06;100.00
25498;BME280;13406;53.380;7.226;2023-04-15T01:38:07;101276.28;;;5.97;100.00
25498;BME280;13406;53.380;7.226;2023-04-15T01:40:33;101284.53;;;6.11;100.00
25498;BME280;13406;53.380;7.226;2023-04-15T01:43:02;101299.84;;;5.92;100.00
25498;BME280;13406;53.380;7.226;2023-04-15T01:45:28;101294.97;;;6.05;100.00
25498;BME280;13406;53.380;7.226;2023-04-15T01:47:54;101300.84;;;5.91;100.00
25498;BME280;13406;53.380;7.226;2023-04-15T01:50:19;101294.63;;;6.00;100.00
25498;BME280;13406;53.380;7.226;2023-04-15T01:52:46;101303.44;;;6.00;100.00
25498;BME280;13406;53.380;7.226;2023-04-15T01:55:12;101301.41;;;5.94;100.00
25498;BME280;13406;53.380;7.226;2023-04-15T01:57:38;101301.59;;;6.01;100.00
25498;BME280;13406;53.380;7.226;2023-04-15T02:00:04;101287.13;;;6.03;100.00
25498;BME280;13406;53.380;7.226;2023-04-15T02:02:32;101298.16;;;6.08;100.00
25498;BME280;13406;53.380;7.226;2023-04-15T02:04:57;101302.44;;;6.01;100.00
25498;BME280;13406;53.380;7.226;2023-04-15T02:07:23;101300.97;;;6.07;100.00
25498;BME280;13406;53.380;7.226;2023-04-15T02:09:48;101295.00;;;6.13;100.00
25498;BME280;13406;53.380;7.226;2023-04-15T02:12:14;101282.88;;;6.10;100.00
25498;BME280;13406;53.380;7.226;2023-04-15T02:14:39;101302.66;;;6.16;100.00
25498;BME280;13406;53.380;7.226;2023-04-15T02:17:05;101280.66;;;6.06;100.00
25498;BME280;13406;53.380;7.226;2023-04-15T02:19:35;101299.22;;;6.24;100.00
25498;BME280;13406;53.380;7.226;2023-04-15T02:22:01;101287.19;;;6.11;100.00
25498;BME280;13406;53.380;7.226;2023-04-15T02:24:29;101308.41;;;6.29;100.00
25498;BME280;13406;53.380;7.226;2023-04-15T02:26:55;101255.41;;;5.92;100.00
25498;BME280;13406;53.380;7.226;2023-04-15T02:29:21;101307.03;;;6.17;100.00
25498;BME280;13406;53.380;7.226;2023-04-15T02:31:47;101312.16;;;6.10;100.00
25498;BME280;13406;53.380;7.226;2023-04-15T02:34:13;101322.88;;;6.27;100.00
25498;BME280;13406;53.380;7.226;2023-04-15T02:36:38;101308.13;;;6.06;100.00
25498;BME280;13406;53.380;7.226;2023-04-15T02:39:05;101327.66;;;6.15;100.00
25498;BME280;13406;53.380;7.226;2023-04-15T02:41:30;101312.63;;;6.06;100.00
25498;BME280;13406;53.380;7.226;2023-04-15T02:43:55;101322.63;;;6.12;100.00
25498;BME280;13406;53.380;7.226;2023-04-15T02:46:21;101327.28;;;6.10;100.00
25498;BME280;13406;53.380;7.226;2023-04-15T02:48:47;101317.56;;;6.01;100.00
25498;BME280;13406;53.380;7.226;2023-04-15T02:51:15;101320.75;;;6.04;100.00
25498;BME280;13406;53.380;7.226;2023-04-15T02:53:41;101311.06;;;5.95;100.00
25498;BME280;13406;53.380;7.226;2023-04-15T02:56:07;101321.91;;;5.84;100.00
25498;BME280;13406;53.380;7.226;2023-04-15T02:58:33;101247.94;;;5.43;100.00
25498;BME280;13406;53.380;7.226;2023-04-15T03:00:59;101294.28;;;5.77;100.00
25498;BME280;13406;53.380;7.226;2023-04-15T03:03:25;101320.78;;;5.86;100.00
25498;BME280;13406;53.380;7.226;2023-04-15T03:05:52;101327.63;;;5.89;100.00
25498;BME280;13406;53.380;7.226;2023-04-15T03:08:17;101288.25;;;5.31;100.00
25498;BME280;13406;53.380;7.226;2023-04-15T03:10:43;101338.13;;;5.91;100.00
25498;BME280;13406;53.380;7.226;2023-04-15T03:13:08;101344.06;;;6.02;100.00
25498;BME280;13406;53.380;7.226;2023-04-15T03:15:34;101344.00;;;5.94;100.00
25498;BME280;13406;53.380;7.226;2023-04-15T03:17:59;101327.56;;;5.81;100.00
25498;BME280;13406;53.380;7.226;2023-04-15T03:20:25;101340.09;;;5.88;100.00
25498;BME280;13406;53.380;7.226;2023-04-15T03:22:50;101344.28;;;5.91;100.00
25498;BME280;13406;53.380;7.226;2023-04-15T03:25:16;101354.19;;;5.81;100.00
25498;BME280;13406;53.380;7.226;2023-04-15T03:27:41;101357.84;;;5.80;100.00
25498;BME280;13406;53.380;7.226;2023-04-15T03:30:07;101352.72;;;5.86;100.00
25498;BME280;13406;53.380;7.226;2023-04-15T03:32:33;101309.28;;;5.60;100.00
25498;BME280;13406;53.380;7.226;2023-04-15T03:34:58;101353.72;;;5.85;100.00
25498;BME280;13406;53.380;7.226;2023-04-15T03:37:24;101367.78;;;5.96;100.00
25498;BME280;13406;53.380;7.226;2023-04-15T03:39:49;101363.66;;;5.93;100.00
25498;BME280;13406;53.380;7.226;2023-04-15T03:42:15;101315.72;;;5.75;100.00
25498;BME280;13406;53.380;7.226;2023-04-15T03:44:41;101325.22;;;5.78;100.00
25498;BME280;13406;53.380;7.226;2023-04-15T03:47:06;101278.56;;;5.65;100.00
25498;BME280;13406;53.380;7.226;2023-04-15T03:49:32;101359.63;;;6.49;100.00
25498;BME280;13406;53.380;7.226;2023-04-15T03:51:57;101353.19;;;6.60;100.00
25498;BME280;13406;53.380;7.226;2023-04-15T03:54:23;101350.69;;;6.59;100.00
25498;BME280;13406;53.380;7.226;2023-04-15T03:56:49;101134.00;;;5.31;100.00
25498;BME280;13406;53.380;7.226;2023-04-15T03:59:15;101030.13;;;4.54;100.00
25498;BME280;13406;53.380;7.226;2023-04-15T04:01:40;101148.63;;;5.09;100.00
25498;BME280;13406;53.380;7.226;2023-04-15T04:04:06;101122.47;;;5.22;100.00
25498;BME280;13406;53.380;7.226;2023-04-15T04:06:31;101086.44;;;5.28;100.00
25498;BME280;13406;53.380;7.226;2023-04-15T04:08:57;101290.59;;;6.72;100.00
25498;BME280;13406;53.380;7.226;2023-04-15T04:11:22;101247.00;;;6.31;100.00
25498;BME280;13406;53.380;7.226;2023-04-15T04:13:48;101089.69;;;5.13;100.00
25498;BME280;13406;53.380;7.226;2023-04-15T04:16:13;101099.22;;;5.24;100.00
25498;BME280;13406;53.380;7.226;2023-04-15T04:18:38;100948.19;;;4.15;100.00
25498;BME280;13406;53.380;7.226;2023-04-15T04:21:04;101106.97;;;4.91;100.00
25498;BME280;13406;53.380;7.226;2023-04-15T04:23:30;101115.50;;;5.21;100.00
25498;BME280;13406;53.380;7.226;2023-04-15T04:25:55;100985.97;;;3.91;100.00
25498;BME280;13406;53.380;7.226;2023-04-15T04:28:21;101105.13;;;4.66;100.00
25498;BME280;13406;53.380;7.226;2023-04-15T04:30:46;101128.53;;;4.88;100.00
25498;BME280;13406;53.380;7.226;2023-04-15T04:33:12;101035.19;;;3.85;100.00
25498;BME280;13406;53.380;7.226;2023-04-15T04:35:37;101062.41;;;4.05;100.00
25498;BME280;13406;53.380;7.226;2023-04-15T04:38:03;101259.66;;;5.07;100.00
25498;BME280;13406;53.380;7.226;2023-04-15T04:40:29;100995.69;;;3.82;100.00
25498;BME280;13406;53.380;7.226;2023-04-15T04:42:55;101137.28;;;4.63;100.00
25498;BME280;13406;53.380;7.226;2023-04-15T04:45:20;101255.03;;;5.35;100.00
25498;BME280;13406;53.380;7.226;2023-04-15T04:47:46;101082.66;;;4.24;100.00
25498;BME280;13406;53.380;7.226;2023-04-15T04:50:12;101004.47;;;3.83;100.00
25498;BME280;13406;53.380;7.226;2023-04-15T04:52:38;101073.78;;;4.34;100.00
25498;BME280;13406;53.380;7.226;2023-04-15T04:55:03;101182.94;;;4.76;100.00
25498;BME280;13406;53.380;7.226;2023-04-15T04:57:29;101055.59;;;4.21;100.00
25498;BME280;13406;53.380;7.226;2023-04-15T04:59:55;101148.25;;;4.78;100.00
25498;BME280;13406;53.380;7.226;2023-04-15T05:02:20;101010.91;;;3.98;100.00
25498;BME280;13406;53.380;7.226;2023-04-15T05:04:46;101148.91;;;4.80;100.00
25498;BME280;13406;53.380;7.226;2023-04-15T05:07:11;101122.31;;;4.80;100.00
25498;BME280;13406;53.380;7.226;2023-04-15T05:09:37;101089.47;;;4.63;100.00
25498;BME280;13406;53.380;7.226;2023-04-15T05:12:03;101181.91;;;5.13;100.00
25498;BME280;13406;53.380;7.226;2023-04-15T05:14:28;101148.16;;;4.87;100.00
25498;BME280;13406;53.380;7.226;2023-04-15T05:16:54;101374.59;;;6.42;100.00
25498;BME280;13406;53.380;7.226;2023-04-15T05:19:20;101201.06;;;5.42;100.00
25498;BME280;13406;53.380;7.226;2023-04-15T05:21:46;101364.81;;;6.51;100.00
25498;BME280;13406;53.380;7.226;2023-04-15T05:24:11;101215.00;;;5.36;100.00
25498;BME280;13406;53.380;7.226;2023-04-15T05:26:37;101180.22;;;5.30;100.00
25498;BME280;13406;53.380;7.226;2023-04-15T05:29:02;101036.16;;;4.38;100.00
25498;BME280;13406;53.380;7.226;2023-04-15T05:31:28;101069.06;;;4.63;100.00
25498;BME280;13406;53.380;7.226;2023-04-15T05:33:53;101437.53;;;7.04;100.00
25498;BME280;13406;53.380;7.226;2023-04-15T05:36:19;101339.31;;;6.48;100.00
25498;BME280;13406;53.380;7.226;2023-04-15T05:38:45;101178.31;;;5.48;100.00
25498;BME280;13406;53.380;7.226;2023-04-15T05:41:10;101148.50;;;5.10;100.00
25498;BME280;13406;53.380;7.226;2023-04-15T05:43:36;101033.84;;;4.61;100.00
25498;BME280;13406;53.380;7.226;2023-04-15T05:46:01;101018.16;;;4.50;100.00
25498;BME280;13406;53.380;7.226;2023-04-15T05:48:27;101234.66;;;5.70;100.00
25498;BME280;13406;53.380;7.226;2023-04-15T05:50:52;101352.69;;;6.65;100.00
25498;BME280;13406;53.380;7.226;2023-04-15T05:53:18;101162.00;;;5.43;100.00
25498;BME280;13406;53.380;7.226;2023-04-15T05:55:43;101227.91;;;5.83;100.00
25498;BME280;13406;53.380;7.226;2023-04-15T05:58:08;101363.84;;;6.94;100.00
25498;BME280;13406;53.380;7.226;2023-04-15T06:00:34;101336.19;;;6.61;100.00
25498;BME280;13406;53.380;7.226;2023-04-15T06:03:00;101370.09;;;6.85;100.00
25498;BME280;13406;53.380;7.226;2023-04-15T06:05:26;101428.09;;;7.25;100.00
25498;BME280;13406;53.380;7.226;2023-04-15T06:07:51;101110.44;;;5.10;100.00
25498;BME280;13406;53.380;7.226;2023-04-15T06:10:17;101171.38;;;5.55;100.00
25498;BME280;13406;53.380;7.226;2023-04-15T06:12:42;101274.06;;;5.92;100.00
25498;BME280;13406;53.380;7.226;2023-04-15T06:15:08;101082.00;;;5.10;100.00
25498;BME280;13406;53.380;7.226;2023-04-15T06:17:35;101093.66;;;5.09;100.00
25498;BME280;13406;53.380;7.226;2023-04-15T06:20:01;101264.81;;;5.96;100.00
25498;BME280;13406;53.380;7.226;2023-04-15T06:22:26;101256.41;;;6.17;100.00
25498;BME280;13406;53.380;7.226;2023-04-15T06:24:51;101265.25;;;6.18;100.00
25498;BME280;13406;53.380;7.226;2023-04-15T06:27:17;101110.09;;;5.39;100.00
25498;BME280;13406;53.380;7.226;2023-04-15T06:29:43;101251.19;;;6.07;100.00
25498;BME280;13406;53.380;7.226;2023-04-15T06:32:10;101196.28;;;5.80;100.00
25498;BME280;13406;53.380;7.226;2023-04-15T06:34:36;101247.28;;;6.20;100.00
25498;BME280;13406;53.380;7.226;2023-04-15T06:37:01;101272.22;;;6.19;100.00
25498;BME280;13406;53.380;7.226;2023-04-15T06:39:26;101191.59;;;5.74;100.00
25498;BME280;13406;53.380;7.226;2023-04-15T06:41:52;101272.41;;;6.17;100.00
25498;BME280;13406;53.380;7.226;2023-04-15T06:44:18;101413.56;;;7.12;100.00
25498;BME280;13406;53.380;7.226;2023-04-15T06:46:43;101262.72;;;6.16;100.00
25498;BME280;13406;53.380;7.226;2023-04-15T06:49:09;101197.75;;;5.75;100.00
25498;BME280;13406;53.380;7.226;2023-04-15T06:51:35;101404.38;;;7.14;100.00
25498;BME280;13406;53.380;7.226;2023-04-15T06:54:02;101256.94;;;6.21;100.00
25498;BME280;13406;53.380;7.226;2023-04-15T06:56:33;101210.03;;;5.94;100.00
25498;BME280;13406;53.380;7.226;2023-04-15T06:58:58;101302.34;;;6.53;100.00
25498;BME280;13406;53.380;7.226;2023-04-15T07:01:23;101170.41;;;5.91;100.00
25498;BME280;13406;53.380;7.226;2023-04-15T07:03:49;101444.84;;;7.60;100.00
25498;BME280;13406;53.380;7.226;2023-04-15T07:06:14;101369.50;;;7.08;100.00
25498;BME280;13406;53.380;7.226;2023-04-15T07:08:40;101327.44;;;6.85;100.00
25498;BME280;13406;53.380;7.226;2023-04-15T07:11:06;101226.34;;;6.33;100.00
25498;BME280;13406;53.380;7.226;2023-04-15T07:13:31;101261.22;;;6.56;100.00
25498;BME280;13406;53.380;7.226;2023-04-15T07:15:57;101362.34;;;7.08;100.00
25498;BME280;13406;53.380;7.226;2023-04-15T07:18:22;101170.16;;;6.10;100.00
25498;BME280;13406;53.380;7.226;2023-04-15T07:20:48;101324.00;;;7.01;100.00
25498;BME280;13406;53.380;7.226;2023-04-15T07:23:13;101286.94;;;6.82;100.00
25498;BME280;13406;53.380;7.226;2023-04-15T07:25:39;101201.06;;;6.45;100.00
25498;BME280;13406;53.380;7.226;2023-04-15T07:28:04;101316.16;;;6.99;100.00
25498;BME280;13406;53.380;7.226;2023-04-15T07:30:30;101250.44;;;6.66;100.00
25498;BME280;13406;53.380;7.226;2023-04-15T07:32:57;101374.28;;;7.46;100.00
25498;BME280;13406;53.380;7.226;2023-04-15T07:35:22;101314.97;;;6.94;100.00
25498;BME280;13406;53.380;7.226;2023-04-15T07:37:49;101456.91;;;8.05;100.00
25498;BME280;13406;53.380;7.226;2023-04-15T07:40:15;101223.41;;;6.52;100.00
25498;BME280;13406;53.380;7.226;2023-04-15T07:42:41;101168.03;;;6.30;100.00
25498;BME280;13406;53.380;7.226;2023-04-15T07:45:06;101132.72;;;6.11;100.00
25498;BME280;13406;53.380;7.226;2023-04-15T07:47:33;101407.63;;;7.75;100.00
25498;BME280;13406;53.380;7.226;2023-04-15T07:49:58;101300.34;;;7.06;100.00
25498;BME280;13406;53.380;7.226;2023-04-15T07:52:25;101276.66;;;6.95;100.00
25498;BME280;13406;53.380;7.226;2023-04-15T07:54:51;101333.53;;;7.28;100.00
25498;BME280;13406;53.380;7.226;2023-04-15T07:57:16;101420.34;;;7.81;100.00
25498;BME280;13406;53.380;7.226;2023-04-15T07:59:42;101388.44;;;7.72;100.00
25498;BME280;13406;53.380;7.226;2023-04-15T08:02:08;101427.38;;;7.90;100.00
25498;BME280;13406;53.380;7.226;2023-04-15T08:04:34;101513.88;;;8.47;100.00
25498;BME280;13406;53.380;7.226;2023-04-15T08:07:00;101413.00;;;8.00;100.00
25498;BME280;13406;53.380;7.226;2023-04-15T08:09:25;101382.78;;;7.75;100.00
25498;BME280;13406;53.380;7.226;2023-04-15T08:11:51;101406.63;;;7.92;100.00
25498;BME280;13406;53.380;7.226;2023-04-15T08:14:17;101471.59;;;8.26;100.00
25498;BME280;13406;53.380;7.226;2023-04-15T08:16:42;101540.78;;;8.62;100.00
25498;BME280;13406;53.380;7.226;2023-04-15T08:19:08;101526.22;;;8.56;100.00
25498;BME280;13406;53.380;7.226;2023-04-15T08:21:33;101552.13;;;8.72;100.00
25498;BME280;13406;53.380;7.226;2023-04-15T08:23:59;101424.69;;;7.99;100.00
25498;BME280;13406;53.380;7.226;2023-04-15T08:26:25;101500.16;;;8.50;100.00
25498;BME280;13406;53.380;7.226;2023-04-15T08:28:51;101406.66;;;7.84;100.00
25498;BME280;13406;53.380;7.226;2023-04-15T08:31:18;101392.78;;;7.89;100.00
25498;BME280;13406;53.380;7.226;2023-04-15T08:33:44;101362.59;;;7.56;100.00
25498;BME280;13406;53.380;7.226;2023-04-15T08:36:11;101241.56;;;6.65;100.00
25498;BME280;13406;53.380;7.226;2023-04-15T08:38:38;101227.09;;;6.68;100.00
25498;BME280;13406;53.380;7.226;2023-04-15T08:41:09;101432.69;;;7.90;100.00
25498;BME280;13406;53.380;7.226;2023-04-15T08:43:43;101177.41;;;6.42;100.00
25498;BME280;13406;53.380;7.226;2023-04-15T08:46:12;101168.75;;;6.40;100.00
25498;BME280;13406;53.380;7.226;2023-04-15T08:48:38;101247.94;;;6.72;100.00
25498;BME280;13406;53.380;7.226;2023-04-15T08:51:05;101237.41;;;6.71;100.00
25498;BME280;13406;53.380;7.226;2023-04-15T08:53:31;101322.19;;;7.18;100.00
25498;BME280;13406;53.380;7.226;2023-04-15T08:55:59;101558.81;;;8.76;100.00
25498;BME280;13406;53.380;7.226;2023-04-15T08:58:29;101509.88;;;8.43;100.00
25498;BME280;13406;53.380;7.226;2023-04-15T09:00:55;101577.38;;;8.77;100.00
25498;BME280;13406;53.380;7.226;2023-04-15T09:03:21;101556.31;;;8.74;100.00
25498;BME280;13406;53.380;7.226;2023-04-15T09:05:48;101466.59;;;8.23;100.00
25498;BME280;13406;53.380;7.226;2023-04-15T09:08:14;101417.00;;;7.87;100.00
25498;BME280;13406;53.380;7.226;2023-04-15T09:10:40;101449.91;;;8.04;100.00
25498;BME280;13406;53.380;7.226;2023-04-15T09:13:05;101578.53;;;8.75;100.00
25498;BME280;13406;53.380;7.226;2023-04-15T09:15:31;101482.81;;;8.13;100.00
25498;BME280;13406;53.380;7.226;2023-04-15T09:17:57;101589.25;;;8.75;100.00
25498;BME280;13406;53.380;7.226;2023-04-15T09:20:23;101539.94;;;8.36;100.00
25498;BME280;13406;53.380;7.226;2023-04-15T09:22:49;101528.72;;;8.17;100.00
25498;BME280;13406;53.380;7.226;2023-04-15T09:25:25;101536.25;;;8.37;100.00
25498;BME280;13406;53.380;7.226;2023-04-15T09:27:58;101593.91;;;8.81;100.00
25498;BME280;13406;53.380;7.226;2023-04-15T09:30:24;101597.09;;;8.85;100.00
25498;BME280;13406;53.380;7.226;2023-04-15T09:32:53;101597.59;;;8.72;100.00
25498;BME280;13406;53.380;7.226;2023-04-15T09:35:24;101573.03;;;8.52;100.00
25498;BME280;13406;53.380;7.226;2023-04-15T09:37:51;101447.69;;;7.75;100.00
25498;BME280;13406;53.380;7.226;2023-04-15T09:40:34;101590.94;;;8.59;100.00
25498;BME280;13406;53.380;7.226;2023-04-15T09:43:01;101603.44;;;8.67;100.00
25498;BME280;13406;53.380;7.226;2023-04-15T09:45:27;101606.28;;;8.82;100.00
25498;BME280;13406;53.380;7.226;2023-04-15T09:47:53;101611.81;;;8.89;100.00
25498;BME280;13406;53.380;7.226;2023-04-15T09:50:19;101481.78;;;7.98;100.00
25498;BME280;13406;53.380;7.226;2023-04-15T09:52:45;101593.56;;;8.68;100.00
25498;BME280;13406;53.380;7.226;2023-04-15T09:55:12;101608.47;;;8.87;100.00
25498;BME280;13406;53.380;7.226;2023-04-15T09:57:39;101621.16;;;9.01;100.00
25498;BME280;13406;53.380;7.226;2023-04-15T10:00:23;101561.81;;;8.65;100.00
25498;BME280;13406;53.380;7.226;2023-04-15T10:02:48;101592.25;;;8.72;100.00
25498;BME280;13406;53.380;7.226;2023-04-15T10:05:14;101616.63;;;8.93;100.00
25498;BME280;13406;53.380;7.226;2023-04-15T10:07:43;101540.47;;;8.40;100.00
25498;BME280;13406;53.380;7.226;2023-04-15T10:10:10;101541.63;;;8.46;100.00
25498;BME280;13406;53.380;7.226;2023-04-15T10:12:39;101625.84;;;8.91;100.00
25498;BME280;13406;53.380;7.226;2023-04-15T10:15:06;101628.00;;;8.95;100.00
25498;BME280;13406;53.380;7.226;2023-04-15T10:17:37;101492.81;;;8.03;100.00
25498;BME280;13406;53.380;7.226;2023-04-15T10:20:06;101638.03;;;8.85;100.00
25498;BME280;13406;53.380;7.226;2023-04-15T10:22:33;101622.16;;;8.92;100.00
25498;BME280;13406;53.380;7.226;2023-04-15T10:25:01;101557.78;;;8.36;100.00
25498;BME280;13406;53.380;7.226;2023-04-15T10:27:28;101533.06;;;8.26;100.00
25498;BME280;13406;53.380;7.226;2023-04-15T10:29:55;101556.31;;;8.42;100.00
25498;BME280;13406;53.380;7.226;2023-04-15T10:32:23;101568.84;;;8.41;100.00
25498;BME280;13406;53.380;7.226;2023-04-15T10:34:50;101567.19;;;8.40;100.00
25498;BME280;13406;53.380;7.226;2023-04-15T10:37:33;101633.84;;;9.07;100.00
25498;BME280;13406;53.380;7.226;2023-04-15T10:39:59;101632.19;;;9.14;100.00
25498;BME280;13406;53.380;7.226;2023-04-15T10:42:32;101585.22;;;8.87;100.00
25498;BME280;13406;53.380;7.226;2023-04-15T10:44:58;101643.72;;;8.98;100.00
25498;BME280;13406;53.380;7.226;2023-04-15T10:47:24;101605.44;;;8.73;100.00
25498;BME280;13406;53.380;7.226;2023-04-15T10:49:51;101617.97;;;9.05;100.00
25498;BME280;13406;53.380;7.226;2023-04-15T10:52:22;101626.44;;;9.25;100.00
25498;BME280;13406;53.380;7.226;2023-04-15T10:54:48;101614.31;;;8.98;100.00
25498;BME280;13406;53.380;7.226;2023-04-15T10:57:23;101591.91;;;8.58;100.00
25498;BME280;13406;53.380;7.226;2023-04-15T11:05:07;101569.34;;;8.36;100.00
25498;BME280;13406;53.380;7.226;2023-04-15T11:07:36;101655.44;;;8.81;100.00
25498;BME280;13406;53.380;7.226;2023-04-15T11:12:45;101563.81;;;8.13;100.00
25498;BME280;13406;53.380;7.226;2023-04-15T11:17:55;101636.56;;;8.66;100.00
25498;BME280;13406;53.380;7.226;2023-04-15T11:20:21;101670.16;;;8.77;100.00
25498;BME280;13406;53.380;7.226;2023-04-15T11:22:48;101569.66;;;8.25;100.00
25498;BME280;13406;53.380;7.226;2023-04-15T11:25:28;101595.75;;;8.40;100.00
25498;BME280;13406;53.380;7.226;2023-04-15T11:27:54;101579.34;;;8.26;100.00
25498;BME280;13406;53.380;7.226;2023-04-15T11:30:21;101575.63;;;8.03;100.00
25498;BME280;13406;53.380;7.226;2023-04-15T11:32:48;101644.88;;;8.47;100.00
25498;BME280;13406;53.380;7.226;2023-04-15T11:35:15;101666.47;;;8.62;100.00
25498;BME280;13406;53.380;7.226;2023-04-15T11:37:41;101592.88;;;8.17;100.00
25498;BME280;13406;53.380;7.226;2023-04-15T11:40:08;101664.28;;;8.57;100.00
25498;BME280;13406;53.380;7.226;2023-04-15T11:42:33;101607.53;;;8.12;100.00
25498;BME280;13406;53.380;7.226;2023-04-15T11:45:14;101517.13;;;7.67;100.00
25498;BME280;13406;53.380;7.226;2023-04-15T11:47:41;101611.25;;;8.28;100.00
25498;BME280;13406;53.380;7.226;2023-04-15T11:52:39;101655.59;;;8.55;100.00
25498;BME280;13406;53.380;7.226;2023-04-15T11:55:06;101691.56;;;8.69;100.00
25498;BME280;13406;53.380;7.226;2023-04-15T11:57:34;101596.53;;;8.07;100.00
25498;BME280;13406;53.380;7.226;2023-04-15T11:59:59;101659.75;;;8.41;100.00
25498;BME280;13406;53.380;7.226;2023-04-15T12:02:31;101635.09;;;8.05;100.00
25498;BME280;13406;53.380;7.226;2023-04-15T12:05:04;101676.81;;;8.48;100.00
25498;BME280;13406;53.380;7.226;2023-04-15T12:07:29;101690.03;;;8.58;100.00
25498;BME280;13406;53.380;7.226;2023-04-15T12:09:55;101693.69;;;8.49;100.00
25498;BME280;13406;53.380;7.226;2023-04-15T12:12:21;101707.59;;;8.60;100.00
25498;BME280;13406;53.380;7.226;2023-04-15T12:14:51;101652.00;;;8.22;100.00
25498;BME280;13406;53.380;7.226;2023-04-15T12:17:17;101659.34;;;8.20;100.00
25498;BME280;13406;53.380;7.226;2023-04-15T12:19:42;101714.09;;;8.58;100.00
25498;BME280;13406;53.380;7.226;2023-04-15T12:22:11;101587.94;;;7.79;100.00
25498;BME280;13406;53.380;7.226;2023-04-15T12:24:38;101719.63;;;8.56;100.00
25498;BME280;13406;53.380;7.226;2023-04-15T12:27:05;101717.13;;;8.71;100.00
25498;BME280;13406;53.380;7.226;2023-04-15T12:29:31;101724.63;;;8.59;100.00
25498;BME280;13406;53.380;7.226;2023-04-15T12:32:10;101726.47;;;8.51;100.00
25498;BME280;13406;53.380;7.226;2023-04-15T12:34:43;101728.59;;;8.39;100.00
25498;BME280;13406;53.380;7.226;2023-04-15T12:37:11;101732.47;;;8.53;100.00
25498;BME280;13406;53.380;7.226;2023-04-15T12:39:47;101733.44;;;8.44;100.00
25498;BME280;13406;53.380;7.226;2023-04-15T12:42:14;101710.94;;;8.20;100.00
25498;BME280;13406;53.380;7.226;2023-04-15T12:44:40;101743.69;;;8.56;100.00
25498;BME280;13406;53.380;7.226;2023-04-15T12:47:06;101681.81;;;8.01;100.00
25498;BME280;13406;53.380;7.226;2023-04-15T12:49:32;101750.84;;;8.48;100.00
25498;BME280;13406;53.380;7.226;2023-04-15T12:51:59;101634.81;;;7.74;100.00
25498;BME280;13406;53.380;7.226;2023-04-15T12:54:25;101744.84;;;8.54;100.00
25498;BME280;13406;53.380;7.226;2023-04-15T12:56:51;101752.50;;;8.41;100.00
25498;BME280;13406;53.380;7.226;2023-04-15T12:59:17;101757.34;;;8.45;100.00